sensor_id;sensor_type;location;lat;lon;timestamp;pressure;altitude;pressure_sealevel;temperature;humidity
71964;BME280;59834;52.124;5.422;2023-03-25T00:01:11;100114.53;;;8.98;82.80
71964;BME280;59834;52.124;5.422;2023-03-25T00:03:40;100124.34;;;8.95;82.74
71964;BME280;59834;52.124;5.422;2023-03-25T00:06:09;100123.53;;;8.94;82.98
71964;BME280;59834;52.124;5.422;2023-03-25T00:08:37;100128.75;;;8.94;82.95
71964;BME280;59834;52.124;5.422;2023-03-25T00:11:04;100113.09;;;8.94;83.00
71964;BME280;59834;52.124;5.422;2023-03-25T00:13:32;100116.63;;;8.93;83.46
71964;BME280;59834;52.124;5.422;2023-03-25T00:16:00;100121.03;;;8.93;82.92
71964;BME280;59834;52.124;5.422;2023-03-25T00:18:29;100116.84;;;8.90;83.18
71964;BME280;59834;52.124;5.422;2023-03-25T00:21:00;100127.28;;;8.90;83.38
71964;BME280;59834;52.124;5.422;2023-03-25T00:23:29;100129.28;;;8.87;83.81
71964;BME280;59834;52.124;5.422;2023-03-25T00:25:56;100124.06;;;8.87;83.37
71964;BME280;59834;52.124;5.422;2023-03-25T00:28:28;100127.50;;;8.87;83.86
71964;BME280;59834;52.124;5.422;2023-03-25T00:31:00;100119.78;;;8.86;84.29
71964;BME280;59834;52.124;5.422;2023-03-25T00:33:29;100123.44;;;8.83;84.20
71964;BME280;59834;52.124;5.422;2023-03-25T00:35:57;100121.56;;;8.85;83.78
71964;BME280;59834;52.124;5.422;2023-03-25T00:38:32;100126.03;;;8.83;84.12
71964;BME280;59834;52.124;5.422;2023-03-25T00:41:27;100128.72;;;8.82;83.48
71964;BME280;59834;52.124;5.422;2023-03-25T00:43:55;100123.63;;;8.80;84.46
71964;BME280;59834;52.124;5.422;2023-03-25T00:46:23;100128.84;;;8.80;84.12
71964;BME280;59834;52.124;5.422;2023-03-25T00:48:52;100129.59;;;8.82;83.95
71964;BME280;59834;52.124;5.422;2023-03-25T00:51:20;100130.50;;;8.81;84.05
71964;BME280;59834;52.124;5.422;2023-03-25T00:53:50;100124.38;;;8.82;83.45
71964;BME280;59834;52.124;5.422;2023-03-25T00:56:23;100124.56;;;8.79;83.49
71964;BME280;59834;52.124;5.422;2023-03-25T00:58:49;100133.03;;;8.83;84.02
71964;BME280;59834;52.124;5.422;2023-03-25T01:01:19;100129.59;;;8.82;84.04
71964;BME280;59834;52.124;5.422;2023-03-25T01:03:49;100127.06;;;8.81;83.34
71964;BME280;59834;52.124;5.422;2023-03-25T01:06:34;100125.28;;;8.81;83.64
71964;BME280;59834;52.124;5.422;2023-03-25T01:09:05;100125.28;;;8.81;82.13
71964;BME280;59834;52.124;5.422;2023-03-25T01:11:33;100129.69;;;8.81;82.33
71964;BME280;59834;52.124;5.422;2023-03-25T01:14:02;100122.88;;;8.78;82.28
71964;BME280;59834;52.124;5.422;2023-03-25T01:16:28;100129.78;;;8.79;82.51
71964;BME280;59834;52.124;5.422;2023-03-25T01:18:55;100130.84;;;8.77;82.45
71964;BME280;59834;52.124;5.422;2023-03-25T01:21:22;100128.00;;;8.80;82.01
71964;BME280;59834;52.124;5.422;2023-03-25T01:23:49;100119.56;;;8.76;82.50
71964;BME280;59834;52.124;5.422;2023-03-25T01:26:15;100123.00;;;8.77;83.08
71964;BME280;59834;52.124;5.422;2023-03-25T01:28:43;100128.97;;;8.79;82.85
71964;BME280;59834;52.124;5.422;2023-03-25T01:31:12;100126.44;;;8.77;82.77
71964;BME280;59834;52.124;5.422;2023-03-25T01:33:39;100122.16;;;8.76;83.52
71964;BME280;59834;52.124;5.422;2023-03-25T01:36:06;100120.72;;;8.72;83.55
71964;BME280;59834;52.124;5.422;2023-03-25T01:38:39;100114.75;;;8.70;84.20
71964;BME280;59834;52.124;5.422;2023-03-25T01:41:08;100118.19;;;8.70;83.76
71964;BME280;59834;52.124;5.422;2023-03-25T01:43:34;100116.72;;;8.66;85.00
71964;BME280;59834;52.124;5.422;2023-03-25T01:46:01;100110.78;;;8.64;84.73
71964;BME280;59834;52.124;5.422;2023-03-25T01:48:31;100105.56;;;8.64;85.44
71964;BME280;59834;52.124;5.422;2023-03-25T01:51:13;100111.16;;;8.58;86.49
71964;BME280;59834;52.124;5.422;2023-03-25T01:54:09;100110.75;;;8.52;87.56
71964;BME280;59834;52.124;5.422;2023-03-25T01:56:39;100109.09;;;8.50;87.37
71964;BME280;59834;52.124;5.422;2023-03-25T01:59:08;100107.63;;;8.46;87.52
71964;BME280;59834;52.124;5.422;2023-03-25T02:01:36;100107.81;;;8.43;88.32
71964;BME280;59834;52.124;5.422;2023-03-25T02:04:03;100103.84;;;8.38;90.25
71964;BME280;59834;52.124;5.422;2023-03-25T02:06:47;100096.50;;;8.30;90.83
71964;BME280;59834;52.124;5.422;2023-03-25T02:09:19;100105.25;;;8.29;90.78
71964;BME280;59834;52.124;5.422;2023-03-25T02:11:47;100110.47;;;8.29;89.81
71964;BME280;59834;52.124;5.422;2023-03-25T02:14:16;100109.53;;;8.30;90.23
71964;BME280;59834;52.124;5.422;2023-03-25T02:25:12;100105.84;;;8.20;91.05
71964;BME280;59834;52.124;5.422;2023-03-25T02:33:09;100115.16;;;7.97;95.45
71964;BME280;59834;52.124;5.422;2023-03-25T02:41:33;100104.03;;;7.80;97.52
71964;BME280;59834;52.124;5.422;2023-03-25T02:46:52;100102.19;;;7.83;97.10
71964;BME280;59834;52.124;5.422;2023-03-25T02:49:41;100095.75;;;7.88;97.75
71964;BME280;59834;52.124;5.422;2023-03-25T02:52:17;100104.50;;;7.87;96.84
71964;BME280;59834;52.124;5.422;2023-03-25T02:54:48;100103.47;;;7.90;96.65
71964;BME280;59834;52.124;5.422;2023-03-25T02:57:18;100105.97;;;7.91;96.62
71964;BME280;59834;52.124;5.422;2023-03-25T02:59:48;100106.50;;;7.96;96.36
71964;BME280;59834;52.124;5.422;2023-03-25T03:02:16;100107.25;;;7.98;96.53
71964;BME280;59834;52.124;5.422;2023-03-25T03:04:49;100100.06;;;8.02;95.64
71964;BME280;59834;52.124;5.422;2023-03-25T03:07:37;100096.66;;;8.01;95.32
71964;BME280;59834;52.124;5.422;2023-03-25T03:10:24;100079.31;;;8.00;95.67
71964;BME280;59834;52.124;5.422;2023-03-25T03:12:55;100081.84;;;8.02;96.03
71964;BME280;59834;52.124;5.422;2023-03-25T03:20:54;100077.34;;;8.04;95.67
71964;BME280;59834;52.124;5.422;2023-03-25T03:23:34;100084.13;;;8.07;95.04
71964;BME280;59834;52.124;5.422;2023-03-25T03:28:55;100080.59;;;8.08;95.08
71964;BME280;59834;52.124;5.422;2023-03-25T03:31:58;100079.75;;;8.07;95.54
71964;BME280;59834;52.124;5.422;2023-03-25T03:34:44;100084.13;;;8.07;95.75
71964;BME280;59834;52.124;5.422;2023-03-25T03:37:24;100081.72;;;8.03;96.30
71964;BME280;59834;52.124;5.422;2023-03-25T03:39:54;100078.16;;;8.04;96.30
71964;BME280;59834;52.124;5.422;2023-03-25T03:42:49;100070.34;;;8.04;96.06
71964;BME280;59834;52.124;5.422;2023-03-25T03:45:23;100068.69;;;8.03;96.18
71964;BME280;59834;52.124;5.422;2023-03-25T03:47:53;100069.53;;;8.04;96.13
71964;BME280;59834;52.124;5.422;2023-03-25T03:50:25;100081.72;;;8.03;95.83
71964;BME280;59834;52.124;5.422;2023-03-25T03:55:40;100060.78;;;8.05;95.93
71964;BME280;59834;52.124;5.422;2023-03-25T03:58:17;100060.16;;;8.01;95.99
71964;BME280;59834;52.124;5.422;2023-03-25T04:01:00;100064.50;;;8.01;97.00
71964;BME280;59834;52.124;5.422;2023-03-25T04:03:33;100067.41;;;7.96;97.30
71964;BME280;59834;52.124;5.422;2023-03-25T04:06:26;100070.88;;;7.97;97.83
71964;BME280;59834;52.124;5.422;2023-03-25T04:08:58;100066.69;;;7.94;97.95
71964;BME280;59834;52.124;5.422;2023-03-25T04:11:32;100058.78;;;7.96;97.96
71964;BME280;59834;52.124;5.422;2023-03-25T04:14:01;100058.78;;;7.96;97.36
71964;BME280;59834;52.124;5.422;2023-03-25T04:16:28;100046.56;;;7.96;97.61
71964;BME280;59834;52.124;5.422;2023-03-25T04:19:01;100059.72;;;7.95;97.50
71964;BME280;59834;52.124;5.422;2023-03-25T04:21:29;100052.00;;;7.93;97.57
71964;BME280;59834;52.124;5.422;2023-03-25T04:23:56;100065.00;;;7.93;98.66
71964;BME280;59834;52.124;5.422;2023-03-25T04:26:27;100048.84;;;7.88;98.98
71964;BME280;59834;52.124;5.422;2023-03-25T04:29:00;100047.72;;;7.92;98.37
71964;BME280;59834;52.124;5.422;2023-03-25T04:31:28;100060.94;;;7.89;99.19
71964;BME280;59834;52.124;5.422;2023-03-25T04:33:58;100062.09;;;7.85;99.52
71964;BME280;59834;52.124;5.422;2023-03-25T04:36:26;100057.97;;;7.81;99.94
71964;BME280;59834;52.124;5.422;2023-03-25T04:38:58;100044.22;;;7.79;100.00
71964;BME280;59834;52.124;5.422;2023-03-25T04:41:25;100041.81;;;7.76;100.00
71964;BME280;59834;52.124;5.422;2023-03-25T04:43:54;100046.28;;;7.74;100.00
71964;BME280;59834;52.124;5.422;2023-03-25T06:17:06;100117.19;;;7.79;96.56
71964;BME280;59834;52.124;5.422;2023-03-25T06:19:33;100108.34;;;7.82;95.87
71964;BME280;59834;52.124;5.422;2023-03-25T06:22:09;100110.63;;;7.86;95.81
71964;BME280;59834;52.124;5.422;2023-03-25T06:24:37;100109.63;;;7.89;94.95
71964;BME280;59834;52.124;5.422;2023-03-25T06:27:07;100109.31;;;7.93;95.81
71964;BME280;59834;52.124;5.422;2023-03-25T06:29:35;100103.72;;;7.99;95.00
71964;BME280;59834;52.124;5.422;2023-03-25T06:32:11;100108.78;;;8.15;94.40
71964;BME280;59834;52.124;5.422;2023-03-25T06:34:40;100121.84;;;8.55;93.55
71964;BME280;59834;52.124;5.422;2023-03-25T06:37:09;100112.16;;;8.83;91.44
71964;BME280;59834;52.124;5.422;2023-03-25T06:39:35;100123.94;;;8.63;91.28
71964;BME280;59834;52.124;5.422;2023-03-25T06:42:05;100127.47;;;8.35;93.03
71964;BME280;59834;52.124;5.422;2023-03-25T06:44:32;100122.66;;;8.16;94.27
71964;BME280;59834;52.124;5.422;2023-03-25T06:46:59;100126.03;;;8.03;95.69
71964;BME280;59834;52.124;5.422;2023-03-25T06:49:27;100121.50;;;7.93;96.78
71964;BME280;59834;52.124;5.422;2023-03-25T06:51:54;100122.91;;;7.84;98.04
71964;BME280;59834;52.124;5.422;2023-03-25T06:54:21;100135.41;;;7.79;98.14
71964;BME280;59834;52.124;5.422;2023-03-25T06:56:48;100135.59;;;7.76;99.54
71964;BME280;59834;52.124;5.422;2023-03-25T06:59:14;100141.19;;;7.70;99.49
71964;BME280;59834;52.124;5.422;2023-03-25T07:01:41;100141.75;;;7.75;100.00
71964;BME280;59834;52.124;5.422;2023-03-25T07:04:08;100151.31;;;7.74;99.98
71964;BME280;59834;52.124;5.422;2023-03-25T07:06:35;100142.13;;;7.69;100.00
71964;BME280;59834;52.124;5.422;2023-03-25T07:09:02;100144.63;;;7.70;100.00
71964;BME280;59834;52.124;5.422;2023-03-25T07:11:29;100146.22;;;7.73;100.00
71964;BME280;59834;52.124;5.422;2023-03-25T07:13:57;100147.34;;;7.69;100.00
71964;BME280;59834;52.124;5.422;2023-03-25T07:16:24;100155.44;;;7.64;100.00
71964;BME280;59834;52.124;5.422;2023-03-25T07:18:51;100158.22;;;7.61;100.00
71964;BME280;59834;52.124;5.422;2023-03-25T07:21:20;100155.72;;;7.60;100.00
71964;BME280;59834;52.124;5.422;2023-03-25T07:23:47;100149.56;;;7.61;100.00
71964;BME280;59834;52.124;5.422;2023-03-25T07:26:13;100155.84;;;7.58;100.00
71964;BME280;59834;52.124;5.422;2023-03-25T07:28:40;100153.13;;;7.60;100.00
71964;BME280;59834;52.124;5.422;2023-03-25T07:31:11;100158.31;;;7.60;100.00
71964;BME280;59834;52.124;5.422;2023-03-25T07:33:38;100161.03;;;7.58;100.00
71964;BME280;59834;52.124;5.422;2023-03-25T07:36:06;100153.88;;;7.62;100.00
71964;BME280;59834;52.124;5.422;2023-03-25T07:38:33;100155.50;;;7.77;100.00
71964;BME280;59834;52.124;5.422;2023-03-25T07:41:11;100154.75;;;7.89;100.00
71964;BME280;59834;52.124;5.422;2023-03-25T07:43:38;100156.59;;;8.01;100.00
71964;BME280;59834;52.124;5.422;2023-03-25T07:46:05;100157.44;;;8.15;100.00
71964;BME280;59834;52.124;5.422;2023-03-25T07:48:32;100156.84;;;8.24;100.00
71964;BME280;59834;52.124;5.422;2023-03-25T07:50:58;100154.81;;;8.29;100.00
71964;BME280;59834;52.124;5.422;2023-03-25T07:53:25;100160.28;;;8.24;100.00
71964;BME280;59834;52.124;5.422;2023-03-25T07:55:52;100163.09;;;8.21;100.00
71964;BME280;59834;52.124;5.422;2023-03-25T07:58:19;100169.56;;;8.16;100.00
71964;BME280;59834;52.124;5.422;2023-03-25T08:00:46;100171.81;;;8.08;99.86
71964;BME280;59834;52.124;5.422;2023-03-25T08:03:13;100150.22;;;8.06;100.00
71964;BME280;59834;52.124;5.422;2023-03-25T08:05:46;100162.13;;;8.10;100.00
71964;BME280;59834;52.124;5.422;2023-03-25T08:08:23;100155.88;;;8.12;100.00
71964;BME280;59834;52.124;5.422;2023-03-25T08:10:52;100158.19;;;8.17;100.00
71964;BME280;59834;52.124;5.422;2023-03-25T08:13:19;100165.06;;;8.18;99.88
71964;BME280;59834;52.124;5.422;2023-03-25T08:15:45;100155.50;;;8.18;99.59
71964;BME280;59834;52.124;5.422;2023-03-25T08:18:12;100169.19;;;8.22;99.40
71964;BME280;59834;52.124;5.422;2023-03-25T08:20:39;100176.13;;;8.21;99.38
71964;BME280;59834;52.124;5.422;2023-03-25T08:23:06;100161.78;;;8.29;99.47
71964;BME280;59834;52.124;5.422;2023-03-25T08:25:39;100177.53;;;8.27;98.87
71964;BME280;59834;52.124;5.422;2023-03-25T08:28:06;100181.47;;;8.20;100.00
71964;BME280;59834;52.124;5.422;2023-03-25T08:30:35;100181.84;;;8.14;100.00
71964;BME280;59834;52.124;5.422;2023-03-25T08:33:05;100186.13;;;8.15;100.00
71964;BME280;59834;52.124;5.422;2023-03-25T08:35:34;100188.34;;;8.21;100.00
71964;BME280;59834;52.124;5.422;2023-03-25T08:38:02;100183.94;;;8.36;100.00
71964;BME280;59834;52.124;5.422;2023-03-25T08:40:35;100189.66;;;8.55;100.00
71964;BME280;59834;52.124;5.422;2023-03-25T08:43:05;100186.19;;;8.55;99.63
71964;BME280;59834;52.124;5.422;2023-03-25T08:45:32;100184.19;;;8.45;99.89
71964;BME280;59834;52.124;5.422;2023-03-25T08:48:02;100179.91;;;8.44;99.31
71964;BME280;59834;52.124;5.422;2023-03-25T08:50:29;100180.25;;;8.53;99.62
71964;BME280;59834;52.124;5.422;2023-03-25T08:52:56;100181.31;;;8.63;98.99
71964;BME280;59834;52.124;5.422;2023-03-25T08:55:25;100187.84;;;8.95;99.33
71964;BME280;59834;52.124;5.422;2023-03-25T08:57:51;100183.66;;;9.18;97.26
71964;BME280;59834;52.124;5.422;2023-03-25T09:00:19;100188.06;;;9.31;97.39
71964;BME280;59834;52.124;5.422;2023-03-25T09:02:50;100183.88;;;9.54;96.15
71964;BME280;59834;52.124;5.422;2023-03-25T09:05:17;100190.72;;;9.80;95.49
71964;BME280;59834;52.124;5.422;2023-03-25T09:07:45;100185.72;;;9.77;92.52
71964;BME280;59834;52.124;5.422;2023-03-25T09:10:14;100183.63;;;9.70;92.79
71964;BME280;59834;52.124;5.422;2023-03-25T09:12:41;100180.91;;;9.71;92.71
71964;BME280;59834;52.124;5.422;2023-03-25T09:15:08;100185.50;;;9.80;92.66
71964;BME280;59834;52.124;5.422;2023-03-25T09:17:35;100190.94;;;9.77;91.85
71964;BME280;59834;52.124;5.422;2023-03-25T09:20:02;100178.50;;;9.68;91.64
71964;BME280;59834;52.124;5.422;2023-03-25T09:22:29;100183.03;;;9.66;91.86
71964;BME280;59834;52.124;5.422;2023-03-25T09:24:56;100185.09;;;9.74;92.31
71964;BME280;59834;52.124;5.422;2023-03-25T09:27:23;100188.94;;;9.81;91.82
71964;BME280;59834;52.124;5.422;2023-03-25T09:29:49;100199.00;;;9.74;91.85
71964;BME280;59834;52.124;5.422;2023-03-25T09:32:16;100206.63;;;9.77;92.31
71964;BME280;59834;52.124;5.422;2023-03-25T09:34:44;100197.16;;;10.00;91.62
71964;BME280;59834;52.124;5.422;2023-03-25T09:37:11;100201.88;;;10.19;90.91
71964;BME280;59834;52.124;5.422;2023-03-25T09:39:37;100204.06;;;10.25;90.14
71964;BME280;59834;52.124;5.422;2023-03-25T09:45:20;100195.69;;;10.57;87.78
71964;BME280;59834;52.124;5.422;2023-03-25T09:50:45;100198.41;;;9.95;89.23
71964;BME280;59834;52.124;5.422;2023-03-25T09:53:49;100198.56;;;9.80;89.15
71964;BME280;59834;52.124;5.422;2023-03-25T09:56:19;100196.78;;;9.81;89.08
71964;BME280;59834;52.124;5.422;2023-03-25T09:58:49;100201.38;;;9.77;88.84
71964;BME280;59834;52.124;5.422;2023-03-25T10:03:58;100207.34;;;9.79;88.32
71964;BME280;59834;52.124;5.422;2023-03-25T10:06:29;100211.41;;;9.83;88.91
71964;BME280;59834;52.124;5.422;2023-03-25T10:12:04;100212.94;;;9.99;86.81
71964;BME280;59834;52.124;5.422;2023-03-25T10:15:11;100209.84;;;10.18;87.73
71964;BME280;59834;52.124;5.422;2023-03-25T10:23:21;100219.13;;;9.98;87.52
71964;BME280;59834;52.124;5.422;2023-03-25T10:25:56;100215.13;;;10.05;86.03
71964;BME280;59834;52.124;5.422;2023-03-25T10:28:32;100226.59;;;10.15;85.81
71964;BME280;59834;52.124;5.422;2023-03-25T10:31:03;100217.31;;;10.11;84.97
71964;BME280;59834;52.124;5.422;2023-03-25T10:33:48;100218.13;;;10.11;85.14
71964;BME280;59834;52.124;5.422;2023-03-25T10:36:17;100226.59;;;10.15;83.90
71964;BME280;59834;52.124;5.422;2023-03-25T10:38:47;100212.56;;;10.29;83.70
71964;BME280;59834;52.124;5.422;2023-03-25T10:43:49;100214.84;;;10.33;82.48
71964;BME280;59834;52.124;5.422;2023-03-25T10:48:55;100220.88;;;10.47;81.86
71964;BME280;59834;52.124;5.422;2023-03-25T10:51:26;100237.00;;;10.41;81.42
71964;BME280;59834;52.124;5.422;2023-03-25T10:53:53;100230.31;;;10.36;80.62
71964;BME280;59834;52.124;5.422;2023-03-25T10:56:24;100233.22;;;10.45;79.92
71964;BME280;59834;52.124;5.422;2023-03-25T10:58:54;100240.09;;;10.46;80.21
71964;BME280;59834;52.124;5.422;2023-03-25T11:01:48;100245.63;;;10.17;81.61
71964;BME280;59834;52.124;5.422;2023-03-25T11:04:18;100239.47;;;10.05;83.76
71964;BME280;59834;52.124;5.422;2023-03-25T11:06:51;100245.50;;;10.19;84.31
71964;BME280;59834;52.124;5.422;2023-03-25T11:09:28;100247.63;;;10.26;83.78
71964;BME280;59834;52.124;5.422;2023-03-25T11:11:59;100244.56;;;10.32;82.41
71964;BME280;59834;52.124;5.422;2023-03-25T11:14:28;100244.34;;;10.35;81.16
71964;BME280;59834;52.124;5.422;2023-03-25T11:16:58;100237.63;;;10.44;81.08
71964;BME280;59834;52.124;5.422;2023-03-25T11:19:28;100257.63;;;10.32;81.60
71964;BME280;59834;52.124;5.422;2023-03-25T11:22:00;100258.28;;;10.23;82.13
71964;BME280;59834;52.124;5.422;2023-03-25T11:24:33;100262.03;;;10.32;82.45
71964;BME280;59834;52.124;5.422;2023-03-25T11:27:06;100254.41;;;10.53;82.01
71964;BME280;59834;52.124;5.422;2023-03-25T11:29:34;100269.97;;;10.67;79.81
71964;BME280;59834;52.124;5.422;2023-03-25T11:32:10;100257.19;;;10.62;79.86
71964;BME280;59834;52.124;5.422;2023-03-25T11:34:38;100259.41;;;10.56;80.53
71964;BME280;59834;52.124;5.422;2023-03-25T11:37:20;100272.03;;;10.51;80.43
71964;BME280;59834;52.124;5.422;2023-03-25T11:39:52;100258.63;;;10.43;81.07
71964;BME280;59834;52.124;5.422;2023-03-25T11:42:39;100250.75;;;10.55;80.44
71964;BME280;59834;52.124;5.422;2023-03-25T11:45:32;100252.03;;;10.50;79.54
71964;BME280;59834;52.124;5.422;2023-03-25T11:48:09;100248.47;;;10.51;78.77
71964;BME280;59834;52.124;5.422;2023-03-25T11:50:37;100250.69;;;10.68;78.13
71964;BME280;59834;52.124;5.422;2023-03-25T11:53:05;100254.59;;;10.87;77.15
71964;BME280;59834;52.124;5.422;2023-03-25T11:55:40;100263.75;;;10.92;77.44
71964;BME280;59834;52.124;5.422;2023-03-25T11:58:14;100261.09;;;10.81;77.49
71964;BME280;59834;52.124;5.422;2023-03-25T12:00:48;100231.19;;;10.72;78.58
71964;BME280;59834;52.124;5.422;2023-03-25T12:06:17;100268.41;;;11.00;78.52
71964;BME280;59834;52.124;5.422;2023-03-25T12:08:50;100258.75;;;10.89;78.04
71964;BME280;59834;52.124;5.422;2023-03-25T12:11:30;100233.75;;;10.85;78.02
71964;BME280;59834;52.124;5.422;2023-03-25T12:17:08;100252.06;;;11.20;77.32
71964;BME280;59834;52.124;5.422;2023-03-25T12:20:07;100251.59;;;11.26;76.09
71964;BME280;59834;52.124;5.422;2023-03-25T12:23:09;100261.81;;;11.18;76.51
71964;BME280;59834;52.124;5.422;2023-03-25T12:26:00;100253.72;;;11.21;75.57
71964;BME280;59834;52.124;5.422;2023-03-25T12:28:39;100245.91;;;11.55;73.13
71964;BME280;59834;52.124;5.422;2023-03-25T12:33:48;100238.41;;;11.73;72.71
71964;BME280;59834;52.124;5.422;2023-03-25T12:41:50;100227.81;;;11.74;71.44
71964;BME280;59834;52.124;5.422;2023-03-25T12:47:16;100227.91;;;11.73;72.03
71964;BME280;59834;52.124;5.422;2023-03-25T12:55:28;100234.88;;;11.85;69.50
71964;BME280;59834;52.124;5.422;2023-03-25T13:04:28;100244.25;;;12.21;67.87
71964;BME280;59834;52.124;5.422;2023-03-25T13:07:27;100234.97;;;12.17;68.53
71964;BME280;59834;52.124;5.422;2023-03-25T13:15:25;100256.31;;;12.56;66.64
71964;BME280;59834;52.124;5.422;2023-03-25T13:20:35;100239.59;;;12.57;65.84
71964;BME280;59834;52.124;5.422;2023-03-25T13:23:05;100246.38;;;12.71;65.84
71964;BME280;59834;52.124;5.422;2023-03-25T13:28:43;100259.44;;;12.50;67.04
71964;BME280;59834;52.124;5.422;2023-03-25T13:31:13;100259.56;;;12.48;66.94
71964;BME280;59834;52.124;5.422;2023-03-25T13:33:46;100258.16;;;12.33;66.73
71964;BME280;59834;52.124;5.422;2023-03-25T13:36:25;100259.50;;;12.27;67.63
71964;BME280;59834;52.124;5.422;2023-03-25T13:39:06;100259.72;;;12.36;68.29
71964;BME280;59834;52.124;5.422;2023-03-25T13:41:42;100256.66;;;12.19;69.09
71964;BME280;59834;52.124;5.422;2023-03-25T13:44:26;100250.91;;;12.25;68.00
71964;BME280;59834;52.124;5.422;2023-03-25T13:47:00;100273.34;;;12.18;68.19
71964;BME280;59834;52.124;5.422;2023-03-25T13:49:42;100258.91;;;12.24;67.89
71964;BME280;59834;52.124;5.422;2023-03-25T13:52:13;100267.50;;;12.26;66.73
71964;BME280;59834;52.124;5.422;2023-03-25T13:54:57;100267.22;;;12.40;65.76
71964;BME280;59834;52.124;5.422;2023-03-25T13:57:43;100259.03;;;12.66;64.83
71964;BME280;59834;52.124;5.422;2023-03-25T14:00:42;100275.84;;;12.74;65.45
71964;BME280;59834;52.124;5.422;2023-03-25T14:12:02;100348.53;;;11.02;73.80
71964;BME280;59834;52.124;5.422;2023-03-25T14:14:50;100336.63;;;10.37;80.60
71964;BME280;59834;52.124;5.422;2023-03-25T14:17:23;100344.69;;;10.09;83.34
71964;BME280;59834;52.124;5.422;2023-03-25T14:19:53;100352.03;;;10.04;85.06
71964;BME280;59834;52.124;5.422;2023-03-25T14:22:37;100341.47;;;9.93;84.87
71964;BME280;59834;52.124;5.422;2023-03-25T14:25:35;100343.56;;;10.00;84.67
71964;BME280;59834;52.124;5.422;2023-03-25T14:28:03;100337.09;;;10.55;83.62
71964;BME280;59834;52.124;5.422;2023-03-25T14:30:31;100333.06;;;10.75;82.70
71964;BME280;59834;52.124;5.422;2023-03-25T14:32:59;100338.81;;;10.80;83.17
71964;BME280;59834;52.124;5.422;2023-03-25T14:43:31;100330.31;;;11.36;81.58
71964;BME280;59834;52.124;5.422;2023-03-25T14:56:30;100338.53;;;11.78;75.25
71964;BME280;59834;52.124;5.422;2023-03-25T14:59:03;100330.84;;;11.88;74.85
71964;BME280;59834;52.124;5.422;2023-03-25T15:01:34;100320.88;;;11.69;73.70
71964;BME280;59834;52.124;5.422;2023-03-25T15:06:45;100342.28;;;11.16;74.38
71964;BME280;59834;52.124;5.422;2023-03-25T15:09:16;100344.50;;;11.09;73.59
71964;BME280;59834;52.124;5.422;2023-03-25T15:11:54;100342.25;;;11.05;74.02
71964;BME280;59834;52.124;5.422;2023-03-25T15:14:29;100340.81;;;11.01;74.07
71964;BME280;59834;52.124;5.422;2023-03-25T15:17:01;100339.25;;;10.98;74.07
71964;BME280;59834;52.124;5.422;2023-03-25T15:19:28;100326.28;;;10.97;73.66
71964;BME280;59834;52.124;5.422;2023-03-25T15:24:34;100436.69;;;10.91;75.29
71964;BME280;59834;52.124;5.422;2023-03-25T15:27:26;100444.69;;;9.47;82.18
71964;BME280;59834;52.124;5.422;2023-03-25T15:36:09;100442.06;;;7.77;97.59
71964;BME280;59834;52.124;5.422;2023-03-25T15:44:10;100438.47;;;7.79;100.00
71964;BME280;59834;52.124;5.422;2023-03-25T15:49:45;100446.88;;;7.54;100.00
71964;BME280;59834;52.124;5.422;2023-03-25T15:55:33;100473.63;;;7.56;100.00
71964;BME280;59834;52.124;5.422;2023-03-25T15:58:06;100468.16;;;7.61;100.00
71964;BME280;59834;52.124;5.422;2023-03-25T16:00:41;100476.88;;;7.76;100.00
71964;BME280;59834;52.124;5.422;2023-03-25T16:03:15;100466.09;;;7.82;100.00
71964;BME280;59834;52.124;5.422;2023-03-25T16:05:54;100464.91;;;7.88;100.00
71964;BME280;59834;52.124;5.422;2023-03-25T16:08:28;100453.81;;;7.84;100.00
71964;BME280;59834;52.124;5.422;2023-03-25T16:10:56;100454.28;;;7.76;100.00
71964;BME280;59834;52.124;5.422;2023-03-25T16:13:38;100454.00;;;7.81;100.00
71964;BME280;59834;52.124;5.422;2023-03-25T16:16:05;100454.69;;;7.85;100.00
71964;BME280;59834;52.124;5.422;2023-03-25T16:18:32;100464.72;;;7.91;100.00
71964;BME280;59834;52.124;5.422;2023-03-25T16:21:00;100467.06;;;7.95;100.00
71964;BME280;59834;52.124;5.422;2023-03-25T16:23:29;100462.34;;;8.02;100.00
71964;BME280;59834;52.124;5.422;2023-03-25T16:25:58;100470.06;;;8.03;100.00
71964;BME280;59834;52.124;5.422;2023-03-25T16:28:28;100479.66;;;8.03;100.00
71964;BME280;59834;52.124;5.422;2023-03-25T16:30:55;100496.22;;;8.02;100.00
71964;BME280;59834;52.124;5.422;2023-03-25T16:33:30;100494.53;;;8.01;100.00
71964;BME280;59834;52.124;5.422;2023-03-25T16:36:03;100500.47;;;7.89;100.00
71964;BME280;59834;52.124;5.422;2023-03-25T16:38:30;100508.53;;;7.84;100.00
71964;BME280;59834;52.124;5.422;2023-03-25T16:41:11;100494.84;;;7.80;100.00
71964;BME280;59834;52.124;5.422;2023-03-25T16:43:40;100487.97;;;7.79;100.00
71964;BME280;59834;52.124;5.422;2023-03-25T16:46:09;100475.06;;;7.92;100.00
71964;BME280;59834;52.124;5.422;2023-03-25T16:48:40;100490.53;;;7.95;100.00
71964;BME280;59834;52.124;5.422;2023-03-25T16:51:14;100492.19;;;7.96;100.00
71964;BME280;59834;52.124;5.422;2023-03-25T16:53:42;100499.25;;;7.94;100.00
71964;BME280;59834;52.124;5.422;2023-03-25T17:01:23;100516.41;;;7.98;100.00
71964;BME280;59834;52.124;5.422;2023-03-25T17:03:50;100522.28;;;8.02;100.00
71964;BME280;59834;52.124;5.422;2023-03-25T17:06:33;100522.19;;;8.03;100.00
71964;BME280;59834;52.124;5.422;2023-03-25T17:09:26;100530.00;;;8.03;100.00
71964;BME280;59834;52.124;5.422;2023-03-25T17:12:01;100528.16;;;8.06;100.00
71964;BME280;59834;52.124;5.422;2023-03-25T17:14:33;100535.41;;;8.00;100.00
71964;BME280;59834;52.124;5.422;2023-03-25T17:17:26;100535.50;;;7.99;100.00
71964;BME280;59834;52.124;5.422;2023-03-25T17:19:54;100538.00;;;8.00;100.00
71964;BME280;59834;52.124;5.422;2023-03-25T17:22:27;100527.56;;;8.00;100.00
71964;BME280;59834;52.124;5.422;2023-03-25T17:25:24;100533.13;;;7.94;100.00